Time;durP1;ratioP1;P1;durP2;ratioP2;P2;SDS_P1;SDS_P2;PMS_P1;PMS_P2;Temp;Humidity;BMP_temperature;BMP_pressure;BME280_temperature;BME280_humidity;BME280_pressure;Samples;Min_cycle;Max_cycle;Signal;HPM_P1;HPM_P2
2022/09/14 00:02:12;;;;;;;0.00;0.00;;;;;;;;;;4981810;28;20038;-79
2022/09/14 00:04:40;;;;;;;0.65;0.63;;;;;;;;;;4989860;28;20490;-83
2022/09/14 00:07:08;;;;;;;14.50;6.88;;;;;;;;;;5008299;28;20038;-80
2022/09/14 00:09:34;;;;;;;0.00;0.00;;;;;;;;;;4986270;28;20102;-79
2022/09/14 00:12:01;;;;;;;0.00;0.00;;;;;;;;;;4982749;28;20058;-81
2022/09/14 00:14:27;;;;;;;0.00;0.00;;;;;;;;;;4988375;28;20030;-81
2022/09/14 00:16:53;;;;;;;0.00;0.00;;;;;;;;;;4991679;28;20586;-81
2022/09/14 00:19:26;;;;;;;0.00;0.00;;;;;;;;;;4996395;28;20377;-80
2022/09/14 00:21:53;;;;;;;0.00;0.00;;;;;;;;;;5005453;28;20037;-81
2022/09/14 00:24:20;;;;;;;0.00;0.00;;;;;;;;;;5036210;28;20020;-80
2022/09/14 00:26:47;;;;;;;0.00;0.00;;;;;;;;;;5053073;28;20050;-81
2022/09/14 00:29:15;;;;;;;0.00;0.00;;;;;;;;;;5011531;28;20075;-81
2022/09/14 00:31:41;;;;;;;12.57;11.40;;;;;;;;;;4993219;28;20105;-81
2022/09/14 00:34:08;;;;;;;0.00;0.00;;;;;;;;;;4993140;28;20019;-82
2022/09/14 00:36:38;;;;;;;0.70;0.70;;;;;;;;;;4992556;28;20081;-82
2022/09/14 00:39:05;;;;;;;0.30;0.30;;;;;;;;;;4990798;28;20034;-81
2022/09/14 00:41:33;;;;;;;0.00;0.00;;;;;;;;;;4992610;28;20031;-81
2022/09/14 00:44:08;;;;;;;0.00;0.00;;;;;;;;;;4992636;28;20029;-80
2022/09/14 00:46:39;;;;;;;0.10;0.10;;;;;;;;;;4991999;28;20124;-81
2022/09/14 00:49:25;;;;;;;0.00;0.00;;;;;;;;;;4993196;28;20463;-80
2022/09/14 00:52:08;;;;;;;0.38;0.32;;;;;;;;;;4979037;28;20062;-81
2022/09/14 00:54:39;;;;;;;0.00;0.00;;;;;;;;;;4973710;28;20050;-82
2022/09/14 00:57:06;;;;;;;0.20;0.20;;;;;;;;;;4984929;28;20041;-82
2022/09/14 00:59:34;;;;;;;12.25;1.85;;;;;;;;;;4991364;28;20076;-81
2022/09/14 01:02:00;;;;;;;0.32;0.32;;;;;;;;;;4992249;28;20035;-81
2022/09/14 01:04:26;;;;;;;0.00;0.00;;;;;;;;;;4992400;28;20376;-82
2022/09/14 01:06:53;;;;;;;0.00;0.00;;;;;;;;;;4992612;28;20122;-82
2022/09/14 01:09:38;;;;;;;0.00;0.00;;;;;;;;;;4992772;28;20105;-82
2022/09/14 01:12:11;;;;;;;11.65;5.68;;;;;;;;;;4992140;28;20027;-82
2022/09/14 01:14:46;;;;;;;0.00;0.00;;;;;;;;;;4992943;28;20092;-82
2022/09/14 01:17:17;;;;;;;0.00;0.00;;;;;;;;;;4992639;28;20022;-81
2022/09/14 01:19:46;;;;;;;0.00;0.00;;;;;;;;;;4991892;28;20559;-82
2022/09/14 01:22:17;;;;;;;0.00;0.00;;;;;;;;;;4984891;28;20042;-81
2022/09/14 01:24:49;;;;;;;0.00;0.00;;;;;;;;;;5001901;28;20107;-81
2022/09/14 01:27:27;;;;;;;3.50;3.30;;;;;;;;;;5006425;28;20105;-81
2022/09/14 01:30:11;;;;;;;0.00;0.00;;;;;;;;;;4992406;28;20441;-82
2022/09/14 01:33:03;;;;;;;0.17;0.17;;;;;;;;;;5033028;28;20028;-82
2022/09/14 01:35:36;;;;;;;0.00;0.00;;;;;;;;;;5011139;28;20129;-81
2022/09/14 01:38:12;;;;;;;0.00;0.00;;;;;;;;;;5047494;28;20499;-80
2022/09/14 01:40:41;;;;;;;0.00;0.00;;;;;;;;;;5092986;28;20146;-80
2022/09/14 01:43:09;;;;;;;0.17;0.17;;;;;;;;;;5052697;28;20066;-80
2022/09/14 01:45:40;;;;;;;0.00;0.00;;;;;;;;;;5054052;28;20443;-80
2022/09/14 01:48:08;;;;;;;0.00;0.00;;;;;;;;;;5008710;28;20042;-81
2022/09/14 01:50:40;;;;;;;0.52;0.52;;;;;;;;;;5009883;28;20047;-81
2022/09/14 01:53:13;;;;;;;6.47;2.60;;;;;;;;;;4991559;28;20046;-80
2022/09/14 01:55:42;;;;;;;0.80;0.63;;;;;;;;;;5006430;28;20031;-82
2022/09/14 01:58:12;;;;;;;6.63;1.52;;;;;;;;;;4993503;28;20038;-81
2022/09/14 02:00:44;;;;;;;2.63;1.85;;;;;;;;;;4997993;28;20030;-81
2022/09/14 02:03:17;;;;;;;2.30;1.40;;;;;;;;;;4996483;28;20046;-82
2022/09/14 02:06:02;;;;;;;2.92;2.13;;;;;;;;;;5000412;28;20035;-79
2022/09/14 02:08:29;;;;;;;3.97;1.25;;;;;;;;;;4990680;28;20069;-81
2022/09/14 02:10:56;;;;;;;4.70;1.75;;;;;;;;;;4988619;28;20050;-81
2022/09/14 02:13:23;;;;;;;5.97;2.00;;;;;;;;;;4991261;28;20026;-80
2022/09/14 02:15:49;;;;;;;9.15;3.17;;;;;;;;;;4998672;28;20117;-83
2022/09/14 02:18:16;;;;;;;5.97;3.80;;;;;;;;;;5024469;28;20034;-81
2022/09/14 02:20:57;;;;;;;7.97;3.25;;;;;;;;;;5009408;28;20057;-81
2022/09/14 02:23:23;;;;;;;18.70;9.85;;;;;;;;;;4995388;28;20183;-81
2022/09/14 02:25:50;;;;;;;10.43;2.72;;;;;;;;;;5031122;28;20403;-82
2022/09/14 02:28:16;;;;;;;0.00;0.00;;;;;;;;;;5036813;28;20023;-81
2022/09/14 02:31:06;;;;;;;0.95;0.95;;;;;;;;;;4995384;28;20476;-82
2022/09/14 02:33:41;;;;;;;0.47;0.38;;;;;;;;;;4994878;28;20515;-81
2022/09/14 02:36:12;;;;;;;3.00;0.75;;;;;;;;;;5076385;28;20419;-82
2022/09/14 02:38:44;;;;;;;7.53;3.10;;;;;;;;;;4987076;28;20389;-81
2022/09/14 02:41:18;;;;;;;3.88;1.15;;;;;;;;;;5000176;28;20061;-81
2022/09/14 02:43:58;;;;;;;2.63;0.95;;;;;;;;;;5005590;28;20043;-84
2022/09/14 02:46:33;;;;;;;0.00;0.00;;;;;;;;;;4984629;28;20054;-82
2022/09/14 02:49:11;;;;;;;0.73;0.70;;;;;;;;;;4997164;28;20056;-80
2022/09/14 02:51:43;;;;;;;0.22;0.20;;;;;;;;;;5069724;28;20564;-80
2022/09/14 02:54:10;;;;;;;2.47;1.90;;;;;;;;;;5000316;28;20036;-82
2022/09/14 02:56:36;;;;;;;18.92;3.28;;;;;;;;;;5008705;28;20107;-82
2022/09/14 02:59:03;;;;;;;0.63;0.40;;;;;;;;;;4991940;28;20034;-81
2022/09/14 03:01:29;;;;;;;1.17;0.93;;;;;;;;;;4998164;28;20109;-81
2022/09/14 03:03:56;;;;;;;3.20;2.53;;;;;;;;;;5069425;28;20359;-81
2022/09/14 03:06:22;;;;;;;5.30;4.80;;;;;;;;;;5007076;28;20098;-82
2022/09/14 03:08:51;;;;;;;6.28;1.73;;;;;;;;;;4996423;28;20049;-82
2022/09/14 03:11:18;;;;;;;22.30;2.90;;;;;;;;;;5010273;28;20081;-81
2022/09/14 03:13:44;;;;;;;46.83;4.63;;;;;;;;;;4993268;28;20033;-81
2022/09/14 03:16:12;;;;;;;4.18;2.50;;;;;;;;;;5013658;28;20019;-82
2022/09/14 03:18:38;;;;;;;8.48;2.20;;;;;;;;;;4994835;28;20392;-80
2022/09/14 03:21:10;;;;;;;10.32;4.45;;;;;;;;;;4988397;28;20372;-81
2022/09/14 03:23:40;;;;;;;2.83;2.00;;;;;;;;;;5015423;28;20034;-81
2022/09/14 03:26:10;;;;;;;0.40;0.40;;;;;;;;;;4990310;28;20037;-81
2022/09/14 03:28:37;;;;;;;7.78;3.58;;;;;;;;;;4992355;28;20125;-81
2022/09/14 03:31:05;;;;;;;6.03;4.45;;;;;;;;;;4978095;28;20030;-81
2022/09/14 03:33:31;;;;;;;12.32;2.72;;;;;;;;;;4985029;28;20068;-81
2022/09/14 03:35:58;;;;;;;3.58;1.73;;;;;;;;;;4989610;28;20560;-81
2022/09/14 03:38:28;;;;;;;7.00;2.47;;;;;;;;;;4978696;28;20476;-81
2022/09/14 03:40:56;;;;;;;7.22;2.65;;;;;;;;;;4987846;28;20481;-81
2022/09/14 03:43:23;;;;;;;2.22;2.03;;;;;;;;;;4989533;28;20054;-81
2022/09/14 03:45:50;;;;;;;11.15;4.43;;;;;;;;;;4976070;28;20438;-80
2022/09/14 03:48:16;;;;;;;8.43;4.65;;;;;;;;;;4977886;28;20060;-81
2022/09/14 03:50:42;;;;;;;1.20;1.13;;;;;;;;;;4985622;28;20029;-83
2022/09/14 03:53:09;;;;;;;1.50;1.38;;;;;;;;;;4993192;28;20163;-82
2022/09/14 03:55:35;;;;;;;17.73;10.05;;;;;;;;;;5000988;28;20488;-81
2022/09/14 03:58:02;;;;;;;5.15;3.60;;;;;;;;;;4991229;28;20056;-80
2022/09/14 04:00:28;;;;;;;2.92;1.65;;;;;;;;;;4989198;28;20056;-81
2022/09/14 04:02:54;;;;;;;9.13;2.05;;;;;;;;;;4987854;28;20393;-80
2022/09/14 04:05:21;;;;;;;15.15;5.18;;;;;;;;;;4990608;28;20019;-82
2022/09/14 04:07:47;;;;;;;3.83;1.45;;;;;;;;;;4984404;28;20105;-80
2022/09/14 04:10:13;;;;;;;20.02;9.15;;;;;;;;;;4998974;28;20088;-82
2022/09/14 04:12:40;;;;;;;2.40;0.85;;;;;;;;;;4998412;28;20031;-81
2022/09/14 04:15:07;;;;;;;2.17;1.75;;;;;;;;;;4985963;28;20456;-82
2022/09/14 04:17:34;;;;;;;17.33;4.47;;;;;;;;;;4986881;28;20360;-85
2022/09/14 04:20:00;;;;;;;4.85;2.72;;;;;;;;;;5003335;28;20091;-83
2022/09/14 04:22:26;;;;;;;15.35;9.82;;;;;;;;;;4988783;28;20031;-83
2022/09/14 04:24:53;;;;;;;40.35;1.15;;;;;;;;;;5006770;28;20493;-83
2022/09/14 04:27:20;;;;;;;8.52;3.13;;;;;;;;;;4994559;28;20101;-83
2022/09/14 04:29:49;;;;;;;1.05;0.98;;;;;;;;;;5007437;28;20026;-84
2022/09/14 04:32:15;;;;;;;15.40;5.10;;;;;;;;;;4988715;28;20026;-86
2022/09/14 04:34:42;;;;;;;0.30;0.28;;;;;;;;;;5015487;28;20039;-83
2022/09/14 04:37:08;;;;;;;10.80;2.67;;;;;;;;;;4994443;28;20177;-80
2022/09/14 04:39:35;;;;;;;8.30;4.32;;;;;;;;;;4993905;28;20070;-82
2022/09/14 04:42:01;;;;;;;11.85;5.13;;;;;;;;;;4985759;28;20035;-80
2022/09/14 04:44:28;;;;;;;7.45;2.78;;;;;;;;;;4981887;28;20030;-83
2022/09/14 04:46:54;;;;;;;2.78;2.58;;;;;;;;;;5047533;28;20226;-83
2022/09/14 04:49:21;;;;;;;10.10;3.05;;;;;;;;;;4991914;28;20091;-81
2022/09/14 04:51:47;;;;;;;37.70;20.80;;;;;;;;;;4997993;28;20061;-81
2022/09/14 04:54:16;;;;;;;6.75;3.08;;;;;;;;;;4990071;28;20069;-83
2022/09/14 04:56:43;;;;;;;29.67;1.90;;;;;;;;;;4981319;28;20038;-83
2022/09/14 04:59:09;;;;;;;0.10;0.10;;;;;;;;;;4979930;28;20064;-85
2022/09/14 05:01:40;;;;;;;1.75;1.45;;;;;;;;;;4991880;28;21464;-82
2022/09/14 05:04:07;;;;;;;0.00;0.00;;;;;;;;;;4980652;28;20997;-83
2022/09/14 05:06:34;;;;;;;7.57;1.52;;;;;;;;;;4981265;28;21540;-80
2022/09/14 05:09:02;;;;;;;0.38;0.20;;;;;;;;;;4980521;28;20092;-81
2022/09/14 05:11:29;;;;;;;1.83;0.32;;;;;;;;;;4981486;28;20076;-82
2022/09/14 05:13:56;;;;;;;1.15;1.08;;;;;;;;;;4982559;28;20538;-81
2022/09/14 05:16:23;;;;;;;1.88;0.52;;;;;;;;;;4990858;28;20031;-82
2022/09/14 05:18:50;;;;;;;5.93;1.73;;;;;;;;;;4980691;28;20121;-80
2022/09/14 05:21:18;;;;;;;3.95;3.65;;;;;;;;;;4977266;28;20114;-80
2022/09/14 05:23:45;;;;;;;2.65;2.50;;;;;;;;;;4991394;28;20063;-82
2022/09/14 05:26:12;;;;;;;0.32;0.32;;;;;;;;;;4984409;28;20032;-84
2022/09/14 05:28:38;;;;;;;2.28;2.08;;;;;;;;;;4982153;28;20850;-82
2022/09/14 05:31:06;;;;;;;0.10;0.10;;;;;;;;;;4976945;28;20463;-83
2022/09/14 05:33:33;;;;;;;0.00;0.00;;;;;;;;;;4982175;28;20023;-83
2022/09/14 05:36:03;;;;;;;0.00;0.00;;;;;;;;;;4985669;28;20061;-83
2022/09/14 05:38:30;;;;;;;0.00;0.00;;;;;;;;;;4985612;28;20030;-82
2022/09/14 05:40:56;;;;;;;0.00;0.00;;;;;;;;;;4987092;28;20068;-82
2022/09/14 05:43:23;;;;;;;0.00;0.00;;;;;;;;;;4982629;28;20732;-82
2022/09/14 05:45:49;;;;;;;1.95;0.52;;;;;;;;;;4979533;28;20027;-80
2022/09/14 05:48:16;;;;;;;0.50;0.50;;;;;;;;;;4981198;28;20042;-83
2022/09/14 05:50:45;;;;;;;2.95;2.70;;;;;;;;;;4980636;28;20102;-81
2022/09/14 05:53:11;;;;;;;0.00;0.00;;;;;;;;;;4989341;28;20057;-80
2022/09/14 05:55:38;;;;;;;5.50;1.90;;;;;;;;;;5045625;28;20444;-81
2022/09/14 05:58:04;;;;;;;1.65;0.55;;;;;;;;;;5060723;28;20076;-83
2022/09/14 06:00:33;;;;;;;1.85;1.13;;;;;;;;;;4978565;28;20117;-83
2022/09/14 06:03:00;;;;;;;0.35;0.35;;;;;;;;;;4978225;28;20496;-80
2022/09/14 06:05:27;;;;;;;2.72;2.50;;;;;;;;;;4975053;28;20057;-79
2022/09/14 06:07:53;;;;;;;5.28;1.02;;;;;;;;;;4974967;28;20045;-83
2022/09/14 06:10:20;;;;;;;0.17;0.17;;;;;;;;;;4975557;28;20584;-82
2022/09/14 06:12:47;;;;;;;0.00;0.00;;;;;;;;;;4978085;28;21026;-82
2022/09/14 06:15:13;;;;;;;1.00;0.77;;;;;;;;;;4980200;28;20053;-82
2022/09/14 06:17:40;;;;;;;3.67;1.02;;;;;;;;;;4981763;28;20030;-81
2022/09/14 06:20:06;;;;;;;5.30;4.82;;;;;;;;;;4980194;28;20031;-83
2022/09/14 06:22:33;;;;;;;0.00;0.00;;;;;;;;;;4977729;28;20473;-83
2022/09/14 06:24:59;;;;;;;0.00;0.00;;;;;;;;;;5051101;28;20054;-83
2022/09/14 06:27:26;;;;;;;0.00;0.00;;;;;;;;;;4987883;28;20072;-83
2022/09/14 06:29:53;;;;;;;5.07;4.72;;;;;;;;;;4983292;28;20034;-82
2022/09/14 06:32:22;;;;;;;1.38;1.38;;;;;;;;;;4974309;28;20085;-82
2022/09/14 06:34:48;;;;;;;0.22;0.22;;;;;;;;;;4985440;28;20122;-79
2022/09/14 06:37:14;;;;;;;0.55;0.55;;;;;;;;;;4986217;28;20164;-79
2022/09/14 06:39:41;;;;;;;1.15;0.52;;;;;;;;;;4982462;28;20125;-80
2022/09/14 06:42:07;;;;;;;0.00;0.00;;;;;;;;;;4986518;28;20039;-81
2022/09/14 06:44:33;;;;;;;1.65;1.13;;;;;;;;;;4975426;28;20098;-80
2022/09/14 06:47:03;;;;;;;0.63;0.63;;;;;;;;;;4980036;28;20075;-81
2022/09/14 06:49:30;;;;;;;1.98;0.22;;;;;;;;;;4978692;28;20525;-81
2022/09/14 06:51:56;;;;;;;2.55;2.28;;;;;;;;;;4973139;28;20062;-80
2022/09/14 06:54:24;;;;;;;0.00;0.00;;;;;;;;;;4978826;28;20034;-81
2022/09/14 06:56:50;;;;;;;2.00;1.00;;;;;;;;;;4985756;28;20329;-79
2022/09/14 06:59:17;;;;;;;2.20;1.60;;;;;;;;;;4993108;28;20054;-81
2022/09/14 07:01:44;;;;;;;0.00;0.00;;;;;;;;;;4996046;28;20536;-81
2022/09/14 07:04:11;;;;;;;1.67;1.63;;;;;;;;;;4988975;28;20049;-82
2022/09/14 07:06:41;;;;;;;0.10;0.10;;;;;;;;;;4975238;28;20111;-80
2022/09/14 07:09:08;;;;;;;0.10;0.10;;;;;;;;;;4985758;28;20022;-83
2022/09/14 07:11:36;;;;;;;0.00;0.00;;;;;;;;;;4978741;28;20035;-80
2022/09/14 07:14:02;;;;;;;0.22;0.22;;;;;;;;;;5044392;28;20053;-82
2022/09/14 07:16:30;;;;;;;0.88;0.80;;;;;;;;;;4982400;28;20443;-82
2022/09/14 07:18:57;;;;;;;0.35;0.22;;;;;;;;;;4976164;28;20088;-82
2022/09/14 07:21:24;;;;;;;0.00;0.00;;;;;;;;;;4978808;28;20067;-82
2022/09/14 07:23:50;;;;;;;0.00;0.00;;;;;;;;;;4979206;28;20430;-80
2022/09/14 07:26:21;;;;;;;5.93;1.08;;;;;;;;;;4982216;28;20035;-83
2022/09/14 07:28:49;;;;;;;0.00;0.00;;;;;;;;;;4975211;28;20034;-83
2022/09/14 07:31:20;;;;;;;0.00;0.00;;;;;;;;;;4982000;28;20093;-85
2022/09/14 07:33:47;;;;;;;26.48;10.10;;;;;;;;;;4986132;28;20031;-81
2022/09/14 07:36:14;;;;;;;0.60;0.52;;;;;;;;;;4981154;28;20027;-81
2022/09/14 07:38:40;;;;;;;1.88;0.82;;;;;;;;;;4979815;28;20030;-81
2022/09/14 07:41:07;;;;;;;0.20;0.20;;;;;;;;;;4982414;28;20044;-81
2022/09/14 07:43:33;;;;;;;0.00;0.00;;;;;;;;;;4987939;28;20038;-80
2022/09/14 07:46:06;;;;;;;1.13;1.02;;;;;;;;;;4994655;28;20031;-83
2022/09/14 07:48:33;;;;;;;0.22;0.22;;;;;;;;;;5001628;28;20026;-81
2022/09/14 07:51:00;;;;;;;0.00;0.00;;;;;;;;;;4991958;28;20035;-81
2022/09/14 07:53:27;;;;;;;26.48;7.40;;;;;;;;;;4989895;28;20034;-80
2022/09/14 07:55:53;;;;;;;1.02;1.02;;;;;;;;;;4981259;28;20417;-82
2022/09/14 07:58:21;;;;;;;2.28;1.65;;;;;;;;;;4986290;28;20041;-80
2022/09/14 08:00:48;;;;;;;0.90;0.90;;;;;;;;;;4985891;28;20034;-82
2022/09/14 08:03:14;;;;;;;12.60;2.50;;;;;;;;;;4989123;28;20057;-81
2022/09/14 08:05:41;;;;;;;35.38;32.10;;;;;;;;;;4985371;28;20119;-83
2022/09/14 08:08:07;;;;;;;0.28;0.28;;;;;;;;;;4992999;28;20035;-83
2022/09/14 08:10:35;;;;;;;0.35;0.35;;;;;;;;;;4992901;28;20034;-81
2022/09/14 08:13:02;;;;;;;4.72;2.00;;;;;;;;;;4994081;28;20054;-80
2022/09/14 08:15:28;;;;;;;3.50;1.00;;;;;;;;;;4978808;28;20068;-82
2022/09/14 08:17:54;;;;;;;3.22;0.95;;;;;;;;;;4982571;28;20039;-82
2022/09/14 08:20:22;;;;;;;0.65;0.43;;;;;;;;;;4986430;28;20503;-81
2022/09/14 08:22:48;;;;;;;1.13;1.10;;;;;;;;;;5003956;28;20024;-82
2022/09/14 08:25:15;;;;;;;0.10;0.10;;;;;;;;;;4989663;28;20907;-82
2022/09/14 08:27:41;;;;;;;0.22;0.15;;;;;;;;;;4987133;28;20088;-80
2022/09/14 08:30:09;;;;;;;0.30;0.30;;;;;;;;;;4983115;28;20133;-80
2022/09/14 08:32:35;;;;;;;0.00;0.00;;;;;;;;;;4992122;28;20024;-81
2022/09/14 08:35:01;;;;;;;0.00;0.00;;;;;;;;;;4983265;28;20117;-80
2022/09/14 08:37:28;;;;;;;0.00;0.00;;;;;;;;;;4988689;28;20443;-81
2022/09/14 08:39:54;;;;;;;0.00;0.00;;;;;;;;;;4988557;28;20035;-80
2022/09/14 08:42:23;;;;;;;0.65;0.65;;;;;;;;;;4981426;28;20033;-82
2022/09/14 08:44:58;;;;;;;0.20;0.20;;;;;;;;;;4991107;28;20360;-81
2022/09/14 08:47:43;;;;;;;0.00;0.00;;;;;;;;;;4995538;28;20079;-82
2022/09/14 08:50:10;;;;;;;2.13;1.60;;;;;;;;;;4979461;28;20480;-79
2022/09/14 08:52:51;;;;;;;1.55;0.47;;;;;;;;;;4982882;28;20392;-80
2022/09/14 08:55:27;;;;;;;0.22;0.20;;;;;;;;;;5000373;28;20515;-82
2022/09/14 08:58:00;;;;;;;12.05;1.10;;;;;;;;;;4983008;28;20042;-81
2022/09/14 09:00:33;;;;;;;2.28;0.43;;;;;;;;;;4989509;28;20426;-81
2022/09/14 09:03:12;;;;;;;0.00;0.00;;;;;;;;;;4998324;28;20484;-80
2022/09/14 09:05:48;;;;;;;0.00;0.00;;;;;;;;;;4992985;28;20555;-80
2022/09/14 09:08:21;;;;;;;1.58;0.38;;;;;;;;;;5001170;28;20087;-80
2022/09/14 09:10:49;;;;;;;0.00;0.00;;;;;;;;;;5010402;28;20571;-80
2022/09/14 09:13:18;;;;;;;1.15;0.95;;;;;;;;;;4983507;28;20041;-80
2022/09/14 09:15:48;;;;;;;0.10;0.10;;;;;;;;;;4985504;28;20049;-80
2022/09/14 09:18:33;;;;;;;0.43;0.43;;;;;;;;;;4991401;28;20241;-80
2022/09/14 09:21:02;;;;;;;0.70;0.70;;;;;;;;;;4983136;28;20041;-80
2022/09/14 09:23:32;;;;;;;0.00;0.00;;;;;;;;;;4998734;28;20099;-80
2022/09/14 09:26:04;;;;;;;0.15;0.15;;;;;;;;;;4998737;28;20427;-80
2022/09/14 09:28:30;;;;;;;1.90;1.80;;;;;;;;;;4987828;28;20330;-82
2022/09/14 09:31:03;;;;;;;0.75;0.75;;;;;;;;;;4980302;28;20056;-80
2022/09/14 09:33:30;;;;;;;1.35;1.25;;;;;;;;;;4980026;28;20371;-81
2022/09/14 09:36:00;;;;;;;2.20;2.10;;;;;;;;;;4979030;28;20038;-81
2022/09/14 09:38:28;;;;;;;0.00;0.00;;;;;;;;;;4998961;28;20044;-82
2022/09/14 09:41:07;;;;;;;5.45;4.28;;;;;;;;;;4987145;28;20042;-80
2022/09/14 09:43:33;;;;;;;1.00;0.68;;;;;;;;;;5025997;28;20404;-80
2022/09/14 09:46:07;;;;;;;0.20;0.20;;;;;;;;;;4992756;28;20103;-80
2022/09/14 09:48:40;;;;;;;2.40;1.55;;;;;;;;;;4997483;28;20034;-80
2022/09/14 09:51:11;;;;;;;0.00;0.00;;;;;;;;;;5000152;28;20020;-82
2022/09/14 09:53:49;;;;;;;0.05;0.05;;;;;;;;;;4991035;28;20331;-80
2022/09/14 09:56:32;;;;;;;1.75;1.65;;;;;;;;;;4989460;28;20605;-81
2022/09/14 09:58:58;;;;;;;0.32;0.30;;;;;;;;;;5008729;28;20534;-79
2022/09/14 10:01:27;;;;;;;7.95;7.63;;;;;;;;;;4987058;28;20507;-80
2022/09/14 10:04:06;;;;;;;0.00;0.00;;;;;;;;;;4984209;28;20024;-81
2022/09/14 10:06:40;;;;;;;6.13;5.82;;;;;;;;;;4987627;28;20070;-80
2022/09/14 10:09:11;;;;;;;4.30;1.95;;;;;;;;;;5005196;28;20114;-81
2022/09/14 10:11:38;;;;;;;0.75;0.75;;;;;;;;;;4984931;28;20023;-80
2022/09/14 10:14:05;;;;;;;0.10;0.10;;;;;;;;;;5008840;28;20189;-80
2022/09/14 10:16:34;;;;;;;0.00;0.00;;;;;;;;;;4979961;28;20018;-80
2022/09/14 10:19:03;;;;;;;0.52;0.52;;;;;;;;;;4979732;28;20030;-81
2022/09/14 10:21:33;;;;;;;2.50;0.43;;;;;;;;;;4983097;28;20064;-81
2022/09/14 10:24:06;;;;;;;0.00;0.00;;;;;;;;;;5001897;28;20026;-79
2022/09/14 10:26:36;;;;;;;0.15;0.15;;;;;;;;;;4991618;28;20033;-82
2022/09/14 10:29:21;;;;;;;0.35;0.35;;;;;;;;;;4993508;28;20029;-81
2022/09/14 10:31:49;;;;;;;0.85;0.63;;;;;;;;;;4981814;28;20603;-80
2022/09/14 10:34:19;;;;;;;0.00;0.00;;;;;;;;;;4977545;28;20080;-81
2022/09/14 10:36:54;;;;;;;0.00;0.00;;;;;;;;;;4980749;28;20451;-83
2022/09/14 10:39:32;;;;;;;0.70;0.65;;;;;;;;;;4998320;28;20032;-82
2022/09/14 10:42:05;;;;;;;0.00;0.00;;;;;;;;;;4997828;28;20117;-79
2022/09/14 10:44:39;;;;;;;7.78;1.10;;;;;;;;;;4979874;28;20497;-80
2022/09/14 10:47:06;;;;;;;0.00;0.00;;;;;;;;;;4991832;28;20037;-81
2022/09/14 10:49:39;;;;;;;0.68;0.57;;;;;;;;;;4977770;28;20419;-81
2022/09/14 10:52:09;;;;;;;0.22;0.22;;;;;;;;;;4999720;28;20080;-81
2022/09/14 10:54:38;;;;;;;0.88;0.88;;;;;;;;;;4989295;28;20076;-81
2022/09/14 10:57:05;;;;;;;1.02;0.38;;;;;;;;;;4982852;28;20113;-80
2022/09/14 10:59:34;;;;;;;0.00;0.00;;;;;;;;;;4979202;28;20261;-81
2022/09/14 11:02:03;;;;;;;3.92;1.88;;;;;;;;;;4981887;28;20361;-82
2022/09/14 11:04:52;;;;;;;0.00;0.00;;;;;;;;;;4996528;28;20020;-80
2022/09/14 11:07:22;;;;;;;0.00;0.00;;;;;;;;;;5025369;28;20465;-81
2022/09/14 11:09:53;;;;;;;4.65;0.82;;;;;;;;;;4980956;28;20034;-81
2022/09/14 11:12:38;;;;;;;0.00;0.00;;;;;;;;;;4988615;28;20034;-79
2022/09/14 11:15:14;;;;;;;0.47;0.45;;;;;;;;;;4991248;28;20034;-80
2022/09/14 11:17:49;;;;;;;0.00;0.00;;;;;;;;;;4981252;28;20413;-80
2022/09/14 11:20:24;;;;;;;0.00;0.00;;;;;;;;;;4983019;28;20125;-80
2022/09/14 11:23:09;;;;;;;0.95;0.95;;;;;;;;;;4992494;28;20076;-79
2022/09/14 11:25:55;;;;;;;0.00;0.00;;;;;;;;;;4985086;28;20048;-79
2022/09/14 11:28:25;;;;;;;0.08;0.08;;;;;;;;;;4983630;28;20110;-78
2022/09/14 11:31:03;;;;;;;0.00;0.00;;;;;;;;;;4998640;28;20461;-79
2022/09/14 11:33:38;;;;;;;0.20;0.05;;;;;;;;;;5013859;28;20480;-80
2022/09/14 11:36:09;;;;;;;0.28;0.28;;;;;;;;;;4983436;28;20026;-81
2022/09/14 11:38:41;;;;;;;0.00;0.00;;;;;;;;;;4994987;28;20027;-80
2022/09/14 11:41:07;;;;;;;1.02;0.20;;;;;;;;;;4986698;28;20400;-80
2022/09/14 11:43:43;;;;;;;0.00;0.00;;;;;;;;;;4981004;28;20026;-80
2022/09/14 11:46:11;;;;;;;0.05;0.05;;;;;;;;;;4980048;28;20023;-80
2022/09/14 11:48:37;;;;;;;0.00;0.00;;;;;;;;;;4979518;28;20031;-80
2022/09/14 11:51:14;;;;;;;0.00;0.00;;;;;;;;;;4982948;28;20051;-80
2022/09/14 11:53:45;;;;;;;0.00;0.00;;;;;;;;;;4987736;28;20030;-80
2022/09/14 11:56:25;;;;;;;0.00;0.00;;;;;;;;;;4998738;28;20027;-78
2022/09/14 11:58:55;;;;;;;0.00;0.00;;;;;;;;;;4984868;28;20026;-80
2022/09/14 12:01:25;;;;;;;0.00;0.00;;;;;;;;;;4978170;28;20475;-79
2022/09/14 12:03:58;;;;;;;0.00;0.00;;;;;;;;;;4980287;28;20034;-79
2022/09/14 12:06:30;;;;;;;0.00;0.00;;;;;;;;;;4992563;28;20030;-81
2022/09/14 12:09:12;;;;;;;0.00;0.00;;;;;;;;;;4982228;28;20068;-80
2022/09/14 12:11:38;;;;;;;0.00;0.00;;;;;;;;;;5001936;28;20151;-80
2022/09/14 12:14:25;;;;;;;3.20;3.10;;;;;;;;;;4984300;28;20034;-80
2022/09/14 12:17:15;;;;;;;0.00;0.00;;;;;;;;;;4982065;28;20032;-80
2022/09/14 12:19:43;;;;;;;0.20;0.20;;;;;;;;;;4983374;28;20121;-79
2022/09/14 12:22:28;;;;;;;0.15;0.15;;;;;;;;;;4978918;28;20049;-81
2022/09/14 12:25:01;;;;;;;0.00;0.00;;;;;;;;;;4984250;28;20069;-80
2022/09/14 12:27:30;;;;;;;0.00;0.00;;;;;;;;;;4981964;28;20021;-80
2022/09/14 12:29:56;;;;;;;0.00;0.00;;;;;;;;;;4978776;28;20041;-79
2022/09/14 12:32:38;;;;;;;0.00;0.00;;;;;;;;;;4981049;28;20038;-78
2022/09/14 12:35:34;;;;;;;0.00;0.00;;;;;;;;;;5005185;28;20128;-80
2022/09/14 12:38:19;;;;;;;0.00;0.00;;;;;;;;;;5015898;28;20061;-80
2022/09/14 12:40:46;;;;;;;0.98;0.98;;;;;;;;;;4989936;28;20030;-80
2022/09/14 12:43:31;;;;;;;0.00;0.00;;;;;;;;;;4989622;28;20115;-80
2022/09/14 12:46:01;;;;;;;28.48;21.98;;;;;;;;;;4984588;28;20034;-80
2022/09/14 12:48:46;;;;;;;0.00;0.00;;;;;;;;;;4974831;28;20350;-81
2022/09/14 12:51:24;;;;;;;0.10;0.00;;;;;;;;;;4983963;28;20019;-80
2022/09/14 12:53:59;;;;;;;0.00;0.00;;;;;;;;;;4983571;28;20030;-79
2022/09/14 12:56:26;;;;;;;0.00;0.00;;;;;;;;;;4988655;28;20100;-81
2022/09/14 12:58:55;;;;;;;0.00;0.00;;;;;;;;;;4993622;28;20606;-80
2022/09/14 13:01:24;;;;;;;0.52;0.47;;;;;;;;;;5003531;28;20034;-78
2022/09/14 13:03:54;;;;;;;0.32;0.32;;;;;;;;;;4990659;28;20026;-81
2022/09/14 13:06:22;;;;;;;0.00;0.00;;;;;;;;;;4996784;28;20113;-80
2022/09/14 13:08:49;;;;;;;0.00;0.00;;;;;;;;;;5009390;28;20050;-78
2022/09/14 13:11:31;;;;;;;0.30;0.22;;;;;;;;;;4987786;28;20037;-78
2022/09/14 13:13:57;;;;;;;0.00;0.00;;;;;;;;;;4986701;28;20034;-78
2022/09/14 13:16:50;;;;;;;0.00;0.00;;;;;;;;;;4990352;28;20018;-77
2022/09/14 13:19:22;;;;;;;0.00;0.00;;;;;;;;;;5048586;28;20034;-78
2022/09/14 13:21:49;;;;;;;0.00;0.00;;;;;;;;;;4995677;28;20538;-78
2022/09/14 13:24:22;;;;;;;0.80;0.80;;;;;;;;;;4995713;28;20114;-78
2022/09/14 13:26:48;;;;;;;0.00;0.00;;;;;;;;;;5001358;28;20030;-78
2022/09/14 13:29:15;;;;;;;2.22;2.13;;;;;;;;;;5013551;28;20038;-77
2022/09/14 13:31:43;;;;;;;0.30;0.30;;;;;;;;;;5006523;28;20375;-77
2022/09/14 13:34:21;;;;;;;1.25;0.80;;;;;;;;;;4986898;28;20026;-78
2022/09/14 13:36:48;;;;;;;0.00;0.00;;;;;;;;;;4986606;28;20083;-79
2022/09/14 13:39:31;;;;;;;0.00;0.00;;;;;;;;;;4987653;28;20053;-77
2022/09/14 13:41:58;;;;;;;0.17;0.17;;;;;;;;;;5005356;28;20066;-79
2022/09/14 13:44:30;;;;;;;0.10;0.10;;;;;;;;;;4988728;28;20170;-76
2022/09/14 13:46:58;;;;;;;0.00;0.00;;;;;;;;;;4989224;28;20035;-79
2022/09/14 13:49:24;;;;;;;3.25;3.10;;;;;;;;;;4989258;28;20054;-79
2022/09/14 13:51:51;;;;;;;0.17;0.17;;;;;;;;;;4990237;28;20042;-77
2022/09/14 13:54:23;;;;;;;0.00;0.00;;;;;;;;;;4984018;28;20026;-78
2022/09/14 13:57:08;;;;;;;4.22;1.05;;;;;;;;;;4997924;28;20022;-77
2022/09/14 13:59:34;;;;;;;0.00;0.00;;;;;;;;;;5010042;28;20093;-77
2022/09/14 14:02:02;;;;;;;16.60;3.75;;;;;;;;;;5001155;28;21747;-78
2022/09/14 14:04:33;;;;;;;0.08;0.08;;;;;;;;;;4995504;28;20080;-78
2022/09/14 14:07:12;;;;;;;0.57;0.57;;;;;;;;;;4988979;28;20034;-78
2022/09/14 14:09:43;;;;;;;0.35;0.35;;;;;;;;;;4995894;28;20037;-77
2022/09/14 14:12:10;;;;;;;0.65;0.65;;;;;;;;;;5002151;28;20373;-77
2022/09/14 14:14:37;;;;;;;0.00;0.00;;;;;;;;;;4992740;28;20026;-77
2022/09/14 14:17:21;;;;;;;0.00;0.00;;;;;;;;;;4987281;28;20080;-77
2022/09/14 14:19:49;;;;;;;0.00;0.00;;;;;;;;;;4998839;28;20022;-78
2022/09/14 14:22:15;;;;;;;0.00;0.00;;;;;;;;;;4984015;28;20035;-77
2022/09/14 14:24:42;;;;;;;0.30;0.30;;;;;;;;;;4985757;28;20026;-77
2022/09/14 14:27:20;;;;;;;0.00;0.00;;;;;;;;;;4991070;28;20025;-78
2022/09/14 14:29:47;;;;;;;0.90;0.90;;;;;;;;;;4991148;28;20372;-78
2022/09/14 14:32:13;;;;;;;0.00;0.00;;;;;;;;;;4998728;28;20394;-77
2022/09/14 14:34:39;;;;;;;0.10;0.00;;;;;;;;;;4999370;28;20030;-78
2022/09/14 14:37:06;;;;;;;0.10;0.10;;;;;;;;;;4991907;28;20034;-79
2022/09/14 14:39:32;;;;;;;0.00;0.00;;;;;;;;;;5002718;28;20051;-78
2022/09/14 14:42:00;;;;;;;0.03;0.03;;;;;;;;;;4997191;28;20081;-77
2022/09/14 14:44:27;;;;;;;0.00;0.00;;;;;;;;;;4989316;28;20113;-77
2022/09/14 14:46:54;;;;;;;0.00;0.00;;;;;;;;;;5000549;28;20020;-78
2022/09/14 14:49:22;;;;;;;0.00;0.00;;;;;;;;;;4998815;28;20362;-78
2022/09/14 14:51:49;;;;;;;0.00;0.00;;;;;;;;;;4998652;28;20038;-78
2022/09/14 14:54:17;;;;;;;0.00;0.00;;;;;;;;;;4985627;28;20068;-78
2022/09/14 14:56:47;;;;;;;0.00;0.00;;;;;;;;;;4987915;28;20038;-79
2022/09/14 14:59:19;;;;;;;0.15;0.15;;;;;;;;;;4982886;28;20067;-79